sensor_id;sensor_type;location;lat;lon;timestamp;P1;durP1;ratioP1;P2;durP2;ratioP2
19798;SDS011;10059;59.850;10.454;2022-07-17T00:00:04;1.13;;;0.23;;
19798;SDS011;10059;59.850;10.454;2022-07-17T00:02:32;1.00;;;0.20;;
19798;SDS011;10059;59.850;10.454;2022-07-17T00:05:00;0.20;;;0.20;;
19798;SDS011;10059;59.850;10.454;2022-07-17T00:07:27;1.30;;;0.30;;
19798;SDS011;10059;59.850;10.454;2022-07-17T00:09:54;0.20;;;0.10;;
19798;SDS011;10059;59.850;10.454;2022-07-17T00:12:20;0.47;;;0.20;;
19798;SDS011;10059;59.850;10.454;2022-07-17T00:14:47;0.20;;;0.20;;
19798;SDS011;10059;59.850;10.454;2022-07-17T00:17:16;0.93;;;0.20;;
19798;SDS011;10059;59.850;10.454;2022-07-17T00:19:43;0.20;;;0.20;;
19798;SDS011;10059;59.850;10.454;2022-07-17T00:22:11;0.70;;;0.17;;
19798;SDS011;10059;59.850;10.454;2022-07-17T00:24:38;0.27;;;0.20;;
19798;SDS011;10059;59.850;10.454;2022-07-17T00:27:05;0.20;;;0.20;;
19798;SDS011;10059;59.850;10.454;2022-07-17T00:29:32;0.10;;;0.10;;
19798;SDS011;10059;59.850;10.454;2022-07-17T00:31:59;0.30;;;0.20;;
19798;SDS011;10059;59.850;10.454;2022-07-17T00:34:26;1.33;;;0.20;;
19798;SDS011;10059;59.850;10.454;2022-07-17T00:36:53;1.43;;;0.20;;
19798;SDS011;10059;59.850;10.454;2022-07-17T00:39:21;0.77;;;0.10;;
19798;SDS011;10059;59.850;10.454;2022-07-17T00:41:48;0.10;;;0.10;;
19798;SDS011;10059;59.850;10.454;2022-07-17T00:44:15;0.10;;;0.10;;
19798;SDS011;10059;59.850;10.454;2022-07-17T00:46:42;0.20;;;0.10;;
19798;SDS011;10059;59.850;10.454;2022-07-17T00:49:09;1.33;;;0.10;;
19798;SDS011;10059;59.850;10.454;2022-07-17T00:51:36;0.10;;;0.10;;
19798;SDS011;10059;59.850;10.454;2022-07-17T00:54:04;0.13;;;0.10;;
19798;SDS011;10059;59.850;10.454;2022-07-17T00:56:33;0.10;;;0.10;;
19798;SDS011;10059;59.850;10.454;2022-07-17T00:59:02;0.17;;;0.10;;
19798;SDS011;10059;59.850;10.454;2022-07-17T01:01:29;0.33;;;0.20;;
19798;SDS011;10059;59.850;10.454;2022-07-17T01:03:56;0.20;;;0.10;;
19798;SDS011;10059;59.850;10.454;2022-07-17T01:06:23;1.27;;;0.10;;
19798;SDS011;10059;59.850;10.454;2022-07-17T01:08:50;0.10;;;0.10;;
19798;SDS011;10059;59.850;10.454;2022-07-17T01:11:18;0.63;;;0.10;;
19798;SDS011;10059;59.850;10.454;2022-07-17T01:13:46;0.33;;;0.10;;
19798;SDS011;10059;59.850;10.454;2022-07-17T01:16:13;0.60;;;0.20;;
19798;SDS011;10059;59.850;10.454;2022-07-17T01:18:41;1.33;;;0.10;;
19798;SDS011;10059;59.850;10.454;2022-07-17T01:21:09;0.60;;;0.10;;
19798;SDS011;10059;59.850;10.454;2022-07-17T01:23:36;1.17;;;0.10;;
19798;SDS011;10059;59.850;10.454;2022-07-17T01:26:03;0.10;;;0.10;;
19798;SDS011;10059;59.850;10.454;2022-07-17T01:28:30;0.77;;;0.10;;
19798;SDS011;10059;59.850;10.454;2022-07-17T01:30:57;0.63;;;0.20;;
19798;SDS011;10059;59.850;10.454;2022-07-17T01:33:28;0.50;;;0.30;;
19798;SDS011;10059;59.850;10.454;2022-07-17T01:35:54;0.30;;;0.17;;
19798;SDS011;10059;59.850;10.454;2022-07-17T01:38:23;0.60;;;0.10;;
19798;SDS011;10059;59.850;10.454;2022-07-17T01:40:50;1.23;;;0.10;;
19798;SDS011;10059;59.850;10.454;2022-07-17T01:43:17;0.10;;;0.10;;
19798;SDS011;10059;59.850;10.454;2022-07-17T01:45:44;0.10;;;0.10;;
19798;SDS011;10059;59.850;10.454;2022-07-17T01:48:11;0.47;;;0.20;;
19798;SDS011;10059;59.850;10.454;2022-07-17T01:50:38;1.50;;;0.10;;
19798;SDS011;10059;59.850;10.454;2022-07-17T01:53:05;2.53;;;0.20;;
19798;SDS011;10059;59.850;10.454;2022-07-17T01:55:33;0.77;;;0.20;;
19798;SDS011;10059;59.850;10.454;2022-07-17T01:58:00;0.20;;;0.10;;
19798;SDS011;10059;59.850;10.454;2022-07-17T02:00:27;0.17;;;0.17;;
19798;SDS011;10059;59.850;10.454;2022-07-17T02:02:54;0.47;;;0.20;;
19798;SDS011;10059;59.850;10.454;2022-07-17T02:05:21;0.27;;;0.10;;
19798;SDS011;10059;59.850;10.454;2022-07-17T02:07:48;0.70;;;0.10;;
19798;SDS011;10059;59.850;10.454;2022-07-17T02:10:15;0.23;;;0.20;;
19798;SDS011;10059;59.850;10.454;2022-07-17T02:12:44;0.10;;;0.10;;
19798;SDS011;10059;59.850;10.454;2022-07-17T02:15:11;0.37;;;0.10;;
19798;SDS011;10059;59.850;10.454;2022-07-17T02:17:38;0.30;;;0.10;;
19798;SDS011;10059;59.850;10.454;2022-07-17T02:20:06;0.10;;;0.10;;
19798;SDS011;10059;59.850;10.454;2022-07-17T02:22:35;0.20;;;0.10;;
19798;SDS011;10059;59.850;10.454;2022-07-17T02:25:03;0.10;;;0.10;;
19798;SDS011;10059;59.850;10.454;2022-07-17T02:27:31;0.10;;;0.10;;
19798;SDS011;10059;59.850;10.454;2022-07-17T02:30:00;0.17;;;0.10;;
19798;SDS011;10059;59.850;10.454;2022-07-17T02:32:27;0.20;;;0.20;;
19798;SDS011;10059;59.850;10.454;2022-07-17T02:34:54;0.20;;;0.10;;
19798;SDS011;10059;59.850;10.454;2022-07-17T02:37:21;0.10;;;0.10;;
19798;SDS011;10059;59.850;10.454;2022-07-17T02:39:48;0.10;;;0.10;;
19798;SDS011;10059;59.850;10.454;2022-07-17T02:42:21;0.30;;;0.20;;
19798;SDS011;10059;59.850;10.454;2022-07-17T02:44:48;0.20;;;0.10;;
19798;SDS011;10059;59.850;10.454;2022-07-17T02:47:21;0.20;;;0.20;;
19798;SDS011;10059;59.850;10.454;2022-07-17T02:49:49;0.30;;;0.20;;
19798;SDS011;10059;59.850;10.454;2022-07-17T02:52:16;0.17;;;0.17;;
19798;SDS011;10059;59.850;10.454;2022-07-17T02:54:43;0.20;;;0.20;;
19798;SDS011;10059;59.850;10.454;2022-07-17T02:57:11;0.50;;;0.20;;
19798;SDS011;10059;59.850;10.454;2022-07-17T02:59:39;0.50;;;0.20;;
19798;SDS011;10059;59.850;10.454;2022-07-17T03:02:07;0.20;;;0.20;;
19798;SDS011;10059;59.850;10.454;2022-07-17T03:04:35;0.60;;;0.20;;
19798;SDS011;10059;59.850;10.454;2022-07-17T03:07:02;0.17;;;0.17;;
19798;SDS011;10059;59.850;10.454;2022-07-17T03:09:29;0.10;;;0.10;;
19798;SDS011;10059;59.850;10.454;2022-07-17T03:11:57;0.40;;;0.20;;
19798;SDS011;10059;59.850;10.454;2022-07-17T03:14:23;0.10;;;0.10;;
19798;SDS011;10059;59.850;10.454;2022-07-17T03:16:50;0.60;;;0.27;;
19798;SDS011;10059;59.850;10.454;2022-07-17T03:19:17;1.67;;;0.27;;
19798;SDS011;10059;59.850;10.454;2022-07-17T03:21:46;0.80;;;0.20;;
19798;SDS011;10059;59.850;10.454;2022-07-17T03:24:13;0.20;;;0.20;;
19798;SDS011;10059;59.850;10.454;2022-07-17T03:26:39;0.43;;;0.20;;
19798;SDS011;10059;59.850;10.454;2022-07-17T03:29:06;0.20;;;0.20;;
19798;SDS011;10059;59.850;10.454;2022-07-17T03:31:33;0.80;;;0.23;;
19798;SDS011;10059;59.850;10.454;2022-07-17T03:34:00;0.17;;;0.10;;
19798;SDS011;10059;59.850;10.454;2022-07-17T03:36:27;1.60;;;0.20;;
19798;SDS011;10059;59.850;10.454;2022-07-17T03:38:55;0.53;;;0.17;;
19798;SDS011;10059;59.850;10.454;2022-07-17T03:41:23;0.70;;;0.20;;
19798;SDS011;10059;59.850;10.454;2022-07-17T03:43:51;0.20;;;0.20;;
19798;SDS011;10059;59.850;10.454;2022-07-17T03:46:18;0.20;;;0.20;;
19798;SDS011;10059;59.850;10.454;2022-07-17T03:48:45;0.30;;;0.20;;
19798;SDS011;10059;59.850;10.454;2022-07-17T03:51:12;0.30;;;0.20;;
19798;SDS011;10059;59.850;10.454;2022-07-17T03:53:38;0.10;;;0.10;;
19798;SDS011;10059;59.850;10.454;2022-07-17T03:56:07;0.20;;;0.13;;
19798;SDS011;10059;59.850;10.454;2022-07-17T03:58:34;0.20;;;0.20;;
19798;SDS011;10059;59.850;10.454;2022-07-17T04:01:01;0.20;;;0.20;;
19798;SDS011;10059;59.850;10.454;2022-07-17T04:03:28;1.10;;;0.10;;
19798;SDS011;10059;59.850;10.454;2022-07-17T04:05:55;0.83;;;0.20;;
19798;SDS011;10059;59.850;10.454;2022-07-17T04:08:22;0.10;;;0.10;;
19798;SDS011;10059;59.850;10.454;2022-07-17T04:10:49;0.70;;;0.20;;
19798;SDS011;10059;59.850;10.454;2022-07-17T04:13:17;0.10;;;0.10;;
19798;SDS011;10059;59.850;10.454;2022-07-17T04:15:44;1.30;;;0.20;;
19798;SDS011;10059;59.850;10.454;2022-07-17T04:18:21;1.33;;;0.20;;
19798;SDS011;10059;59.850;10.454;2022-07-17T04:20:49;0.20;;;0.20;;
19798;SDS011;10059;59.850;10.454;2022-07-17T04:23:16;0.10;;;0.10;;
19798;SDS011;10059;59.850;10.454;2022-07-17T04:25:44;0.57;;;0.20;;
19798;SDS011;10059;59.850;10.454;2022-07-17T04:28:11;0.40;;;0.23;;
19798;SDS011;10059;59.850;10.454;2022-07-17T04:30:40;0.73;;;0.27;;
19798;SDS011;10059;59.850;10.454;2022-07-17T04:33:07;0.40;;;0.30;;
19798;SDS011;10059;59.850;10.454;2022-07-17T04:35:34;0.20;;;0.20;;
19798;SDS011;10059;59.850;10.454;2022-07-17T04:38:01;0.20;;;0.20;;
19798;SDS011;10059;59.850;10.454;2022-07-17T04:40:29;0.20;;;0.20;;
19798;SDS011;10059;59.850;10.454;2022-07-17T04:42:56;0.30;;;0.20;;
19798;SDS011;10059;59.850;10.454;2022-07-17T04:45:23;0.30;;;0.20;;
19798;SDS011;10059;59.850;10.454;2022-07-17T04:47:52;0.20;;;0.20;;
19798;SDS011;10059;59.850;10.454;2022-07-17T04:50:19;0.20;;;0.20;;
19798;SDS011;10059;59.850;10.454;2022-07-17T04:52:46;0.63;;;0.20;;
19798;SDS011;10059;59.850;10.454;2022-07-17T04:55:13;0.10;;;0.10;;
19798;SDS011;10059;59.850;10.454;2022-07-17T04:57:40;1.53;;;0.30;;
19798;SDS011;10059;59.850;10.454;2022-07-17T05:00:07;1.80;;;0.50;;
19798;SDS011;10059;59.850;10.454;2022-07-17T05:02:35;0.30;;;0.30;;
19798;SDS011;10059;59.850;10.454;2022-07-17T05:05:04;0.20;;;0.20;;
19798;SDS011;10059;59.850;10.454;2022-07-17T05:07:31;0.40;;;0.20;;
19798;SDS011;10059;59.850;10.454;2022-07-17T05:09:58;1.07;;;0.23;;
19798;SDS011;10059;59.850;10.454;2022-07-17T05:12:26;1.13;;;0.43;;
19798;SDS011;10059;59.850;10.454;2022-07-17T05:14:53;0.20;;;0.20;;
19798;SDS011;10059;59.850;10.454;2022-07-17T05:17:20;0.30;;;0.20;;
19798;SDS011;10059;59.850;10.454;2022-07-17T05:19:47;0.60;;;0.30;;
19798;SDS011;10059;59.850;10.454;2022-07-17T05:22:15;0.77;;;0.20;;
19798;SDS011;10059;59.850;10.454;2022-07-17T05:24:42;0.80;;;0.20;;
19798;SDS011;10059;59.850;10.454;2022-07-17T05:27:09;0.20;;;0.20;;
19798;SDS011;10059;59.850;10.454;2022-07-17T05:29:36;0.20;;;0.20;;
19798;SDS011;10059;59.850;10.454;2022-07-17T05:32:03;1.37;;;0.20;;
19798;SDS011;10059;59.850;10.454;2022-07-17T05:34:30;0.47;;;0.37;;
19798;SDS011;10059;59.850;10.454;2022-07-17T05:36:57;0.17;;;0.13;;
19798;SDS011;10059;59.850;10.454;2022-07-17T05:39:25;0.30;;;0.30;;
19798;SDS011;10059;59.850;10.454;2022-07-17T05:41:52;0.40;;;0.30;;
19798;SDS011;10059;59.850;10.454;2022-07-17T05:44:19;1.10;;;0.30;;
19798;SDS011;10059;59.850;10.454;2022-07-17T05:46:46;0.60;;;0.30;;
19798;SDS011;10059;59.850;10.454;2022-07-17T05:49:13;0.30;;;0.30;;
19798;SDS011;10059;59.850;10.454;2022-07-17T05:51:40;0.57;;;0.30;;
19798;SDS011;10059;59.850;10.454;2022-07-17T05:54:07;0.20;;;0.20;;
19798;SDS011;10059;59.850;10.454;2022-07-17T05:56:35;0.50;;;0.30;;
19798;SDS011;10059;59.850;10.454;2022-07-17T05:59:02;0.30;;;0.30;;
19798;SDS011;10059;59.850;10.454;2022-07-17T06:01:29;0.57;;;0.30;;
19798;SDS011;10059;59.850;10.454;2022-07-17T06:03:56;0.20;;;0.20;;
19798;SDS011;10059;59.850;10.454;2022-07-17T06:06:23;1.23;;;0.30;;
19798;SDS011;10059;59.850;10.454;2022-07-17T06:08:50;0.30;;;0.20;;
19798;SDS011;10059;59.850;10.454;2022-07-17T06:11:17;0.50;;;0.40;;
19798;SDS011;10059;59.850;10.454;2022-07-17T06:13:45;0.20;;;0.20;;
19798;SDS011;10059;59.850;10.454;2022-07-17T06:16:12;0.30;;;0.20;;
19798;SDS011;10059;59.850;10.454;2022-07-17T06:18:39;0.47;;;0.30;;
19798;SDS011;10059;59.850;10.454;2022-07-17T06:21:06;0.60;;;0.30;;
19798;SDS011;10059;59.850;10.454;2022-07-17T06:23:33;0.30;;;0.30;;
19798;SDS011;10059;59.850;10.454;2022-07-17T06:26:00;0.53;;;0.30;;
19798;SDS011;10059;59.850;10.454;2022-07-17T06:28:27;0.30;;;0.30;;
19798;SDS011;10059;59.850;10.454;2022-07-17T06:30:56;0.30;;;0.20;;
19798;SDS011;10059;59.850;10.454;2022-07-17T06:33:23;0.40;;;0.30;;
19798;SDS011;10059;59.850;10.454;2022-07-17T06:35:49;0.40;;;0.30;;
19798;SDS011;10059;59.850;10.454;2022-07-17T06:38:16;0.40;;;0.30;;
19798;SDS011;10059;59.850;10.454;2022-07-17T06:40:43;1.47;;;0.40;;
19798;SDS011;10059;59.850;10.454;2022-07-17T06:43:10;0.30;;;0.23;;
19798;SDS011;10059;59.850;10.454;2022-07-17T06:45:37;0.20;;;0.20;;
19798;SDS011;10059;59.850;10.454;2022-07-17T06:48:05;0.20;;;0.20;;
19798;SDS011;10059;59.850;10.454;2022-07-17T06:50:34;0.27;;;0.27;;
19798;SDS011;10059;59.850;10.454;2022-07-17T06:53:00;0.50;;;0.30;;
19798;SDS011;10059;59.850;10.454;2022-07-17T06:55:27;0.50;;;0.30;;
19798;SDS011;10059;59.850;10.454;2022-07-17T06:57:54;0.30;;;0.30;;
19798;SDS011;10059;59.850;10.454;2022-07-17T07:00:22;0.40;;;0.40;;
19798;SDS011;10059;59.850;10.454;2022-07-17T07:02:49;0.20;;;0.20;;
19798;SDS011;10059;59.850;10.454;2022-07-17T07:05:17;2.20;;;0.50;;
19798;SDS011;10059;59.850;10.454;2022-07-17T07:07:44;0.77;;;0.40;;
19798;SDS011;10059;59.850;10.454;2022-07-17T07:10:11;0.53;;;0.40;;
19798;SDS011;10059;59.850;10.454;2022-07-17T07:12:38;0.30;;;0.30;;
19798;SDS011;10059;59.850;10.454;2022-07-17T07:15:06;0.53;;;0.40;;
19798;SDS011;10059;59.850;10.454;2022-07-17T07:17:34;0.70;;;0.40;;
19798;SDS011;10059;59.850;10.454;2022-07-17T07:20:00;0.40;;;0.30;;
19798;SDS011;10059;59.850;10.454;2022-07-17T07:22:30;0.57;;;0.40;;
19798;SDS011;10059;59.850;10.454;2022-07-17T07:24:57;0.60;;;0.40;;
19798;SDS011;10059;59.850;10.454;2022-07-17T07:27:24;0.53;;;0.30;;
19798;SDS011;10059;59.850;10.454;2022-07-17T07:29:50;0.63;;;0.50;;
19798;SDS011;10059;59.850;10.454;2022-07-17T07:32:17;0.63;;;0.40;;
19798;SDS011;10059;59.850;10.454;2022-07-17T07:34:44;0.60;;;0.50;;
19798;SDS011;10059;59.850;10.454;2022-07-17T07:37:11;0.40;;;0.40;;
19798;SDS011;10059;59.850;10.454;2022-07-17T07:39:39;2.10;;;0.47;;
19798;SDS011;10059;59.850;10.454;2022-07-17T07:42:06;0.57;;;0.40;;
19798;SDS011;10059;59.850;10.454;2022-07-17T07:44:33;0.50;;;0.50;;
19798;SDS011;10059;59.850;10.454;2022-07-17T07:47:01;0.50;;;0.50;;
19798;SDS011;10059;59.850;10.454;2022-07-17T07:49:28;0.50;;;0.40;;
19798;SDS011;10059;59.850;10.454;2022-07-17T07:51:55;1.77;;;0.40;;
19798;SDS011;10059;59.850;10.454;2022-07-17T07:54:21;0.80;;;0.50;;
19798;SDS011;10059;59.850;10.454;2022-07-17T07:56:50;0.80;;;0.47;;
19798;SDS011;10059;59.850;10.454;2022-07-17T07:59:17;0.40;;;0.40;;
19798;SDS011;10059;59.850;10.454;2022-07-17T08:01:44;1.17;;;0.70;;
19798;SDS011;10059;59.850;10.454;2022-07-17T08:04:11;0.70;;;0.63;;
19798;SDS011;10059;59.850;10.454;2022-07-17T08:06:37;1.63;;;0.70;;
19798;SDS011;10059;59.850;10.454;2022-07-17T08:09:04;2.10;;;0.60;;
19798;SDS011;10059;59.850;10.454;2022-07-17T08:11:31;0.50;;;0.50;;
19798;SDS011;10059;59.850;10.454;2022-07-17T08:14:00;0.70;;;0.40;;
19798;SDS011;10059;59.850;10.454;2022-07-17T08:16:27;0.97;;;0.50;;
19798;SDS011;10059;59.850;10.454;2022-07-17T08:18:54;0.67;;;0.40;;
19798;SDS011;10059;59.850;10.454;2022-07-17T08:21:21;1.00;;;0.60;;
19798;SDS011;10059;59.850;10.454;2022-07-17T08:23:48;0.60;;;0.50;;
19798;SDS011;10059;59.850;10.454;2022-07-17T08:26:15;2.53;;;0.50;;
19798;SDS011;10059;59.850;10.454;2022-07-17T08:28:42;0.70;;;0.60;;
19798;SDS011;10059;59.850;10.454;2022-07-17T08:31:11;2.17;;;0.60;;
19798;SDS011;10059;59.850;10.454;2022-07-17T08:33:38;0.93;;;0.43;;
19798;SDS011;10059;59.850;10.454;2022-07-17T08:36:05;0.60;;;0.50;;
19798;SDS011;10059;59.850;10.454;2022-07-17T08:38:32;0.50;;;0.40;;
19798;SDS011;10059;59.850;10.454;2022-07-17T08:40:59;0.70;;;0.50;;
19798;SDS011;10059;59.850;10.454;2022-07-17T08:43:26;0.40;;;0.40;;
19798;SDS011;10059;59.850;10.454;2022-07-17T08:45:53;0.80;;;0.63;;
19798;SDS011;10059;59.850;10.454;2022-07-17T08:48:22;1.13;;;0.50;;
19798;SDS011;10059;59.850;10.454;2022-07-17T08:50:52;0.83;;;0.50;;
19798;SDS011;10059;59.850;10.454;2022-07-17T08:53:20;0.70;;;0.50;;
19798;SDS011;10059;59.850;10.454;2022-07-17T08:55:48;0.77;;;0.50;;
19798;SDS011;10059;59.850;10.454;2022-07-17T08:58:15;2.27;;;0.50;;
19798;SDS011;10059;59.850;10.454;2022-07-17T09:00:43;0.90;;;0.50;;
19798;SDS011;10059;59.850;10.454;2022-07-17T09:03:10;0.40;;;0.40;;
19798;SDS011;10059;59.850;10.454;2022-07-17T09:05:41;0.60;;;0.40;;
19798;SDS011;10059;59.850;10.454;2022-07-17T09:08:08;2.53;;;0.40;;
19798;SDS011;10059;59.850;10.454;2022-07-17T09:10:43;0.60;;;0.40;;
19798;SDS011;10059;59.850;10.454;2022-07-17T09:13:15;0.70;;;0.37;;
19798;SDS011;10059;59.850;10.454;2022-07-17T09:15:43;0.40;;;0.40;;
19798;SDS011;10059;59.850;10.454;2022-07-17T09:18:11;0.60;;;0.30;;
19798;SDS011;10059;59.850;10.454;2022-07-17T09:20:44;0.50;;;0.30;;
19798;SDS011;10059;59.850;10.454;2022-07-17T09:23:12;0.73;;;0.33;;
19798;SDS011;10059;59.850;10.454;2022-07-17T09:25:40;0.97;;;0.40;;
19798;SDS011;10059;59.850;10.454;2022-07-17T09:28:09;0.57;;;0.40;;
19798;SDS011;10059;59.850;10.454;2022-07-17T09:30:38;0.50;;;0.50;;
19798;SDS011;10059;59.850;10.454;2022-07-17T09:33:07;0.67;;;0.50;;
19798;SDS011;10059;59.850;10.454;2022-07-17T09:35:45;0.67;;;0.40;;
19798;SDS011;10059;59.850;10.454;2022-07-17T09:38:26;0.33;;;0.30;;
19798;SDS011;10059;59.850;10.454;2022-07-17T09:41:04;0.70;;;0.40;;
19798;SDS011;10059;59.850;10.454;2022-07-17T09:43:39;0.77;;;0.40;;
19798;SDS011;10059;59.850;10.454;2022-07-17T09:46:11;0.97;;;0.43;;
19798;SDS011;10059;59.850;10.454;2022-07-17T09:48:44;0.67;;;0.30;;
19798;SDS011;10059;59.850;10.454;2022-07-17T09:51:18;0.40;;;0.40;;
19798;SDS011;10059;59.850;10.454;2022-07-17T09:53:47;0.50;;;0.40;;
19798;SDS011;10059;59.850;10.454;2022-07-17T09:56:16;0.50;;;0.40;;
19798;SDS011;10059;59.850;10.454;2022-07-17T09:58:45;1.53;;;0.40;;
19798;SDS011;10059;59.850;10.454;2022-07-17T10:01:14;0.60;;;0.40;;
19798;SDS011;10059;59.850;10.454;2022-07-17T10:03:42;0.50;;;0.40;;
19798;SDS011;10059;59.850;10.454;2022-07-17T10:06:11;0.40;;;0.30;;
19798;SDS011;10059;59.850;10.454;2022-07-17T10:08:39;0.30;;;0.30;;
19798;SDS011;10059;59.850;10.454;2022-07-17T10:11:06;0.40;;;0.30;;
19798;SDS011;10059;59.850;10.454;2022-07-17T10:13:35;1.70;;;0.40;;
19798;SDS011;10059;59.850;10.454;2022-07-17T10:16:06;0.67;;;0.50;;
19798;SDS011;10059;59.850;10.454;2022-07-17T10:18:34;0.40;;;0.40;;
19798;SDS011;10059;59.850;10.454;2022-07-17T10:21:06;0.50;;;0.40;;
19798;SDS011;10059;59.850;10.454;2022-07-17T10:23:36;0.60;;;0.30;;
19798;SDS011;10059;59.850;10.454;2022-07-17T10:26:04;0.50;;;0.40;;
19798;SDS011;10059;59.850;10.454;2022-07-17T10:28:38;0.30;;;0.30;;
19798;SDS011;10059;59.850;10.454;2022-07-17T10:31:09;0.30;;;0.30;;
19798;SDS011;10059;59.850;10.454;2022-07-17T10:33:36;1.90;;;0.40;;
19798;SDS011;10059;59.850;10.454;2022-07-17T10:36:04;0.33;;;0.30;;
19798;SDS011;10059;59.850;10.454;2022-07-17T10:38:40;1.13;;;0.30;;
19798;SDS011;10059;59.850;10.454;2022-07-17T10:41:09;0.60;;;0.30;;
19798;SDS011;10059;59.850;10.454;2022-07-17T10:43:47;1.03;;;0.37;;
19798;SDS011;10059;59.850;10.454;2022-07-17T10:46:15;0.40;;;0.30;;
19798;SDS011;10059;59.850;10.454;2022-07-17T10:48:42;0.20;;;0.20;;
19798;SDS011;10059;59.850;10.454;2022-07-17T10:51:14;0.50;;;0.30;;
19798;SDS011;10059;59.850;10.454;2022-07-17T10:53:42;0.20;;;0.20;;
19798;SDS011;10059;59.850;10.454;2022-07-17T10:56:10;0.33;;;0.20;;
19798;SDS011;10059;59.850;10.454;2022-07-17T10:58:38;0.33;;;0.20;;
19798;SDS011;10059;59.850;10.454;2022-07-17T11:01:07;0.50;;;0.30;;
19798;SDS011;10059;59.850;10.454;2022-07-17T11:03:38;0.30;;;0.27;;
19798;SDS011;10059;59.850;10.454;2022-07-17T11:06:08;0.50;;;0.30;;
19798;SDS011;10059;59.850;10.454;2022-07-17T11:08:40;1.33;;;0.20;;
19798;SDS011;10059;59.850;10.454;2022-07-17T11:11:07;0.20;;;0.20;;
19798;SDS011;10059;59.850;10.454;2022-07-17T11:13:36;0.40;;;0.30;;
19798;SDS011;10059;59.850;10.454;2022-07-17T11:16:03;0.40;;;0.20;;
19798;SDS011;10059;59.850;10.454;2022-07-17T11:18:30;0.40;;;0.20;;
19798;SDS011;10059;59.850;10.454;2022-07-17T11:20:58;0.30;;;0.20;;
19798;SDS011;10059;59.850;10.454;2022-07-17T11:23:27;2.03;;;0.37;;
19798;SDS011;10059;59.850;10.454;2022-07-17T11:25:56;0.23;;;0.10;;
19798;SDS011;10059;59.850;10.454;2022-07-17T11:28:31;0.57;;;0.20;;
19798;SDS011;10059;59.850;10.454;2022-07-17T11:31:02;0.67;;;0.40;;
19798;SDS011;10059;59.850;10.454;2022-07-17T11:33:45;0.50;;;0.30;;
19798;SDS011;10059;59.850;10.454;2022-07-17T11:36:20;0.57;;;0.30;;
19798;SDS011;10059;59.850;10.454;2022-07-17T11:38:48;0.33;;;0.20;;
19798;SDS011;10059;59.850;10.454;2022-07-17T11:41:15;0.40;;;0.40;;
19798;SDS011;10059;59.850;10.454;2022-07-17T11:43:44;0.40;;;0.40;;
19798;SDS011;10059;59.850;10.454;2022-07-17T11:46:13;1.30;;;0.60;;
19798;SDS011;10059;59.850;10.454;2022-07-17T11:48:40;0.70;;;0.50;;
19798;SDS011;10059;59.850;10.454;2022-07-17T11:51:08;0.57;;;0.50;;
19798;SDS011;10059;59.850;10.454;2022-07-17T11:53:35;0.23;;;0.20;;
19798;SDS011;10059;59.850;10.454;2022-07-17T11:56:03;0.30;;;0.30;;
19798;SDS011;10059;59.850;10.454;2022-07-17T11:58:40;0.37;;;0.37;;
19798;SDS011;10059;59.850;10.454;2022-07-17T12:01:08;0.50;;;0.30;;
19798;SDS011;10059;59.850;10.454;2022-07-17T12:03:37;0.30;;;0.30;;
19798;SDS011;10059;59.850;10.454;2022-07-17T12:06:04;0.47;;;0.30;;
19798;SDS011;10059;59.850;10.454;2022-07-17T12:08:31;0.30;;;0.30;;
19798;SDS011;10059;59.850;10.454;2022-07-17T12:10:59;1.00;;;0.20;;
19798;SDS011;10059;59.850;10.454;2022-07-17T12:13:38;0.30;;;0.30;;
19798;SDS011;10059;59.850;10.454;2022-07-17T12:16:17;1.10;;;0.40;;
19798;SDS011;10059;59.850;10.454;2022-07-17T12:18:55;0.20;;;0.20;;
19798;SDS011;10059;59.850;10.454;2022-07-17T12:21:24;0.27;;;0.27;;
19798;SDS011;10059;59.850;10.454;2022-07-17T12:23:55;0.50;;;0.30;;
19798;SDS011;10059;59.850;10.454;2022-07-17T12:26:24;0.40;;;0.37;;
19798;SDS011;10059;59.850;10.454;2022-07-17T12:28:51;0.60;;;0.40;;
19798;SDS011;10059;59.850;10.454;2022-07-17T12:31:18;0.40;;;0.30;;
19798;SDS011;10059;59.850;10.454;2022-07-17T12:33:46;0.40;;;0.40;;
19798;SDS011;10059;59.850;10.454;2022-07-17T12:36:15;1.17;;;0.50;;
19798;SDS011;10059;59.850;10.454;2022-07-17T12:38:42;1.17;;;0.50;;
19798;SDS011;10059;59.850;10.454;2022-07-17T12:41:09;0.60;;;0.50;;
19798;SDS011;10059;59.850;10.454;2022-07-17T12:43:36;3.10;;;0.60;;
19798;SDS011;10059;59.850;10.454;2022-07-17T12:46:03;0.40;;;0.40;;
19798;SDS011;10059;59.850;10.454;2022-07-17T12:48:30;1.17;;;0.50;;
19798;SDS011;10059;59.850;10.454;2022-07-17T12:50:57;1.63;;;0.40;;
19798;SDS011;10059;59.850;10.454;2022-07-17T12:53:26;0.80;;;0.30;;
19798;SDS011;10059;59.850;10.454;2022-07-17T12:55:53;2.70;;;0.40;;
19798;SDS011;10059;59.850;10.454;2022-07-17T12:58:20;1.33;;;0.47;;
19798;SDS011;10059;59.850;10.454;2022-07-17T13:00:46;1.17;;;0.30;;
19798;SDS011;10059;59.850;10.454;2022-07-17T13:03:13;0.80;;;0.40;;
19798;SDS011;10059;59.850;10.454;2022-07-17T13:05:40;0.60;;;0.30;;
19798;SDS011;10059;59.850;10.454;2022-07-17T13:08:07;1.03;;;0.40;;
19798;SDS011;10059;59.850;10.454;2022-07-17T13:10:35;0.23;;;0.23;;
19798;SDS011;10059;59.850;10.454;2022-07-17T13:13:02;0.73;;;0.30;;
19798;SDS011;10059;59.850;10.454;2022-07-17T13:15:30;0.40;;;0.40;;
19798;SDS011;10059;59.850;10.454;2022-07-17T13:17:57;0.40;;;0.30;;
19798;SDS011;10059;59.850;10.454;2022-07-17T13:20:25;0.40;;;0.40;;
19798;SDS011;10059;59.850;10.454;2022-07-17T13:22:52;0.53;;;0.40;;
19798;SDS011;10059;59.850;10.454;2022-07-17T13:25:19;0.30;;;0.30;;
19798;SDS011;10059;59.850;10.454;2022-07-17T13:27:47;1.10;;;0.30;;
19798;SDS011;10059;59.850;10.454;2022-07-17T13:30:14;0.43;;;0.30;;
19798;SDS011;10059;59.850;10.454;2022-07-17T13:32:41;0.40;;;0.30;;
19798;SDS011;10059;59.850;10.454;2022-07-17T13:35:08;0.30;;;0.30;;
19798;SDS011;10059;59.850;10.454;2022-07-17T13:37:35;0.40;;;0.40;;
19798;SDS011;10059;59.850;10.454;2022-07-17T13:40:03;0.47;;;0.40;;
19798;SDS011;10059;59.850;10.454;2022-07-17T13:42:31;0.83;;;0.70;;
19798;SDS011;10059;59.850;10.454;2022-07-17T13:44:59;1.60;;;1.13;;
19798;SDS011;10059;59.850;10.454;2022-07-17T13:47:26;1.60;;;1.20;;
19798;SDS011;10059;59.850;10.454;2022-07-17T13:49:53;2.07;;;1.70;;
19798;SDS011;10059;59.850;10.454;2022-07-17T13:52:20;3.13;;;2.47;;
19798;SDS011;10059;59.850;10.454;2022-07-17T13:54:47;0.70;;;0.50;;
19798;SDS011;10059;59.850;10.454;2022-07-17T13:57:14;1.87;;;0.97;;
19798;SDS011;10059;59.850;10.454;2022-07-17T13:59:41;1.60;;;1.00;;
19798;SDS011;10059;59.850;10.454;2022-07-17T14:02:09;1.97;;;1.53;;
19798;SDS011;10059;59.850;10.454;2022-07-17T14:04:36;3.23;;;1.50;;
19798;SDS011;10059;59.850;10.454;2022-07-17T14:07:03;2.47;;;1.97;;
19798;SDS011;10059;59.850;10.454;2022-07-17T14:09:30;1.77;;;0.77;;
19798;SDS011;10059;59.850;10.454;2022-07-17T14:11:57;0.77;;;0.40;;
19798;SDS011;10059;59.850;10.454;2022-07-17T14:14:24;2.00;;;0.70;;
19798;SDS011;10059;59.850;10.454;2022-07-17T14:16:52;1.33;;;1.23;;
19798;SDS011;10059;59.850;10.454;2022-07-17T14:19:20;0.50;;;0.50;;
19798;SDS011;10059;59.850;10.454;2022-07-17T14:21:47;2.70;;;1.57;;
19798;SDS011;10059;59.850;10.454;2022-07-17T14:24:14;3.43;;;1.73;;
19798;SDS011;10059;59.850;10.454;2022-07-17T14:26:41;2.13;;;1.30;;
19798;SDS011;10059;59.850;10.454;2022-07-17T14:29:09;1.33;;;0.90;;
19798;SDS011;10059;59.850;10.454;2022-07-17T14:31:36;0.60;;;0.50;;
19798;SDS011;10059;59.850;10.454;2022-07-17T14:34:03;0.40;;;0.40;;
19798;SDS011;10059;59.850;10.454;2022-07-17T14:36:31;1.20;;;0.50;;